sensor_id;sensor_type;location;lat;lon;timestamp;temperature;humidity
4985;DHT22;2509;49.902;8.600;2023-06-14T00:00:12;19.50;89.10
4985;DHT22;2509;49.902;8.600;2023-06-14T00:03:14;19.40;89.40
4985;DHT22;2509;49.902;8.600;2023-06-14T00:06:19;19.30;90.10
4985;DHT22;2509;49.902;8.600;2023-06-14T00:12:33;19.40;90.10
4985;DHT22;2509;49.902;8.600;2023-06-14T00:15:36;19.30;90.00
4985;DHT22;2509;49.902;8.600;2023-06-14T00:18:38;19.20;90.30
4985;DHT22;2509;49.902;8.600;2023-06-14T00:21:41;19.10;90.90
4985;DHT22;2509;49.902;8.600;2023-06-14T00:24:43;19.00;91.10
4985;DHT22;2509;49.902;8.600;2023-06-14T00:27:45;18.90;91.50
4985;DHT22;2509;49.902;8.600;2023-06-14T00:30:47;18.80;91.40
4985;DHT22;2509;49.902;8.600;2023-06-14T00:33:48;18.80;91.40
4985;DHT22;2509;49.902;8.600;2023-06-14T00:36:51;18.70;91.80
4985;DHT22;2509;49.902;8.600;2023-06-14T00:39:53;18.60;92.40
4985;DHT22;2509;49.902;8.600;2023-06-14T00:42:55;18.40;92.60
4985;DHT22;2509;49.902;8.600;2023-06-14T00:45:57;18.30;93.40
4985;DHT22;2509;49.902;8.600;2023-06-14T00:48:59;18.30;93.60
4985;DHT22;2509;49.902;8.600;2023-06-14T00:52:04;18.30;93.70
4985;DHT22;2509;49.902;8.600;2023-06-14T00:55:07;18.30;93.90
4985;DHT22;2509;49.902;8.600;2023-06-14T00:58:09;18.30;93.90
4985;DHT22;2509;49.902;8.600;2023-06-14T01:01:11;18.30;93.70
4985;DHT22;2509;49.902;8.600;2023-06-14T01:04:13;18.30;94.00
4985;DHT22;2509;49.902;8.600;2023-06-14T01:07:23;18.30;94.10
4985;DHT22;2509;49.902;8.600;2023-06-14T01:10:34;18.20;93.90
4985;DHT22;2509;49.902;8.600;2023-06-14T01:13:39;18.20;94.00
4985;DHT22;2509;49.902;8.600;2023-06-14T01:16:41;18.10;94.10
4985;DHT22;2509;49.902;8.600;2023-06-14T01:19:43;18.00;94.20
4985;DHT22;2509;49.902;8.600;2023-06-14T01:22:50;17.90;94.20
4985;DHT22;2509;49.902;8.600;2023-06-14T01:25:53;17.80;95.00
4985;DHT22;2509;49.902;8.600;2023-06-14T01:28:55;17.80;95.10
4985;DHT22;2509;49.902;8.600;2023-06-14T01:31:59;17.80;94.90
4985;DHT22;2509;49.902;8.600;2023-06-14T01:35:01;17.80;94.60
4985;DHT22;2509;49.902;8.600;2023-06-14T01:38:06;17.80;94.80
4985;DHT22;2509;49.902;8.600;2023-06-14T01:41:09;17.80;94.80
4985;DHT22;2509;49.902;8.600;2023-06-14T01:44:12;17.80;94.80
4985;DHT22;2509;49.902;8.600;2023-06-14T01:47:16;17.80;94.90
4985;DHT22;2509;49.902;8.600;2023-06-14T01:50:19;17.80;95.00
4985;DHT22;2509;49.902;8.600;2023-06-14T01:53:22;17.70;94.90
4985;DHT22;2509;49.902;8.600;2023-06-14T01:56:24;17.70;95.10
4985;DHT22;2509;49.902;8.600;2023-06-14T01:59:26;17.70;94.90
4985;DHT22;2509;49.902;8.600;2023-06-14T02:02:28;17.70;95.10
4985;DHT22;2509;49.902;8.600;2023-06-14T02:05:30;17.70;95.30
4985;DHT22;2509;49.902;8.600;2023-06-14T02:08:33;17.60;95.40
4985;DHT22;2509;49.902;8.600;2023-06-14T02:11:35;17.60;95.60
4985;DHT22;2509;49.902;8.600;2023-06-14T02:14:37;17.60;95.70
4985;DHT22;2509;49.902;8.600;2023-06-14T02:17:39;17.50;95.70
4985;DHT22;2509;49.902;8.600;2023-06-14T02:20:41;17.60;95.90
4985;DHT22;2509;49.902;8.600;2023-06-14T02:23:44;17.60;95.90
4985;DHT22;2509;49.902;8.600;2023-06-14T02:26:46;17.60;95.90
4985;DHT22;2509;49.902;8.600;2023-06-14T02:29:48;17.60;95.90
4985;DHT22;2509;49.902;8.600;2023-06-14T02:32:50;17.50;96.20
4985;DHT22;2509;49.902;8.600;2023-06-14T02:35:53;17.60;95.90
4985;DHT22;2509;49.902;8.600;2023-06-14T02:38:58;17.60;96.10
4985;DHT22;2509;49.902;8.600;2023-06-14T02:42:00;17.60;96.10
4985;DHT22;2509;49.902;8.600;2023-06-14T02:45:02;17.60;96.10
4985;DHT22;2509;49.902;8.600;2023-06-14T02:48:04;17.50;96.20
4985;DHT22;2509;49.902;8.600;2023-06-14T02:51:06;17.50;96.80
4985;DHT22;2509;49.902;8.600;2023-06-14T02:54:11;17.40;96.50
4985;DHT22;2509;49.902;8.600;2023-06-14T02:57:13;17.30;96.70
4985;DHT22;2509;49.902;8.600;2023-06-14T03:00:15;17.30;96.70
4985;DHT22;2509;49.902;8.600;2023-06-14T03:03:17;17.30;96.90
4985;DHT22;2509;49.902;8.600;2023-06-14T03:06:18;17.20;96.90
4985;DHT22;2509;49.902;8.600;2023-06-14T03:09:22;17.20;97.60
4985;DHT22;2509;49.902;8.600;2023-06-14T03:12:23;17.30;97.30
4985;DHT22;2509;49.902;8.600;2023-06-14T03:15:25;17.30;97.70
4985;DHT22;2509;49.902;8.600;2023-06-14T03:18:28;17.40;97.50
4985;DHT22;2509;49.902;8.600;2023-06-14T03:21:30;17.50;98.80
4985;DHT22;2509;49.902;8.600;2023-06-14T03:24:34;17.60;98.60
4985;DHT22;2509;49.902;8.600;2023-06-14T03:27:37;17.60;98.00
4985;DHT22;2509;49.902;8.600;2023-06-14T03:30:38;17.60;99.20
4985;DHT22;2509;49.902;8.600;2023-06-14T03:33:40;17.60;98.30
4985;DHT22;2509;49.902;8.600;2023-06-14T03:36:42;17.60;98.90
4985;DHT22;2509;49.902;8.600;2023-06-14T03:39:45;17.60;99.30
4985;DHT22;2509;49.902;8.600;2023-06-14T03:42:48;17.60;99.40
4985;DHT22;2509;49.902;8.600;2023-06-14T03:45:49;17.60;99.00
4985;DHT22;2509;49.902;8.600;2023-06-14T03:48:51;17.50;99.20
4985;DHT22;2509;49.902;8.600;2023-06-14T03:51:53;17.50;99.20
4985;DHT22;2509;49.902;8.600;2023-06-14T03:54:57;17.40;99.30
4985;DHT22;2509;49.902;8.600;2023-06-14T03:58:00;17.30;99.50
4985;DHT22;2509;49.902;8.600;2023-06-14T04:01:02;17.30;99.20
4985;DHT22;2509;49.902;8.600;2023-06-14T04:04:04;17.20;98.70
4985;DHT22;2509;49.902;8.600;2023-06-14T04:07:06;17.00;99.00
4985;DHT22;2509;49.902;8.600;2023-06-14T04:10:11;16.90;99.00
4985;DHT22;2509;49.902;8.600;2023-06-14T04:13:13;16.80;99.40
4985;DHT22;2509;49.902;8.600;2023-06-14T04:16:14;16.70;99.70
4985;DHT22;2509;49.902;8.600;2023-06-14T04:19:16;16.60;99.80
4985;DHT22;2509;49.902;8.600;2023-06-14T04:22:18;16.70;99.80
4985;DHT22;2509;49.902;8.600;2023-06-14T04:25:21;16.80;99.90
4985;DHT22;2509;49.902;8.600;2023-06-14T04:28:23;16.80;99.80
4985;DHT22;2509;49.902;8.600;2023-06-14T04:31:26;16.90;99.40
4985;DHT22;2509;49.902;8.600;2023-06-14T04:34:29;16.80;99.80
4985;DHT22;2509;49.902;8.600;2023-06-14T04:37:32;16.80;99.90
4985;DHT22;2509;49.902;8.600;2023-06-14T04:40:36;16.80;99.90
4985;DHT22;2509;49.902;8.600;2023-06-14T04:43:43;16.90;99.90
4985;DHT22;2509;49.902;8.600;2023-06-14T04:46:48;17.00;99.90
4985;DHT22;2509;49.902;8.600;2023-06-14T04:49:50;17.10;99.90
4985;DHT22;2509;49.902;8.600;2023-06-14T04:52:54;17.20;99.90
4985;DHT22;2509;49.902;8.600;2023-06-14T04:55:57;17.40;99.90
4985;DHT22;2509;49.902;8.600;2023-06-14T04:58:58;17.40;99.90
4985;DHT22;2509;49.902;8.600;2023-06-14T05:02:00;17.40;99.90
4985;DHT22;2509;49.902;8.600;2023-06-14T05:05:02;17.40;99.90
4985;DHT22;2509;49.902;8.600;2023-06-14T05:08:07;17.40;99.90
4985;DHT22;2509;49.902;8.600;2023-06-14T05:11:10;17.50;99.90
4985;DHT22;2509;49.902;8.600;2023-06-14T05:14:12;17.50;99.90
4985;DHT22;2509;49.902;8.600;2023-06-14T05:17:14;17.50;99.80
4985;DHT22;2509;49.902;8.600;2023-06-14T05:20:20;17.50;99.70
4985;DHT22;2509;49.902;8.600;2023-06-14T05:23:23;17.70;99.80
4985;DHT22;2509;49.902;8.600;2023-06-14T05:26:26;17.70;99.50
4985;DHT22;2509;49.902;8.600;2023-06-14T05:29:29;17.60;99.50
4985;DHT22;2509;49.902;8.600;2023-06-14T05:32:31;17.60;99.20
4985;DHT22;2509;49.902;8.600;2023-06-14T05:35:32;17.70;99.30
4985;DHT22;2509;49.902;8.600;2023-06-14T05:38:34;17.80;99.10
4985;DHT22;2509;49.902;8.600;2023-06-14T05:41:37;17.90;99.10
4985;DHT22;2509;49.902;8.600;2023-06-14T05:44:39;18.00;99.50
4985;DHT22;2509;49.902;8.600;2023-06-14T05:47:41;18.10;98.30
4985;DHT22;2509;49.902;8.600;2023-06-14T05:50:43;18.20;99.20
4985;DHT22;2509;49.902;8.600;2023-06-14T05:53:44;18.20;98.70
4985;DHT22;2509;49.902;8.600;2023-06-14T05:56:48;18.30;98.10
4985;DHT22;2509;49.902;8.600;2023-06-14T05:59:49;18.50;97.90
4985;DHT22;2509;49.902;8.600;2023-06-14T06:02:51;18.60;98.10
4985;DHT22;2509;49.902;8.600;2023-06-14T06:05:53;18.60;97.80
4985;DHT22;2509;49.902;8.600;2023-06-14T06:08:55;18.70;98.50
4985;DHT22;2509;49.902;8.600;2023-06-14T06:11:58;18.90;98.20
4985;DHT22;2509;49.902;8.600;2023-06-14T06:15:00;18.90;97.00
4985;DHT22;2509;49.902;8.600;2023-06-14T06:18:01;19.00;97.30
4985;DHT22;2509;49.902;8.600;2023-06-14T06:21:03;19.10;97.20
4985;DHT22;2509;49.902;8.600;2023-06-14T06:24:06;19.10;96.50
4985;DHT22;2509;49.902;8.600;2023-06-14T06:27:09;19.10;96.70
4985;DHT22;2509;49.902;8.600;2023-06-14T06:30:12;19.10;96.30
4985;DHT22;2509;49.902;8.600;2023-06-14T06:33:14;19.10;97.00
4985;DHT22;2509;49.902;8.600;2023-06-14T06:36:15;19.20;96.50
4985;DHT22;2509;49.902;8.600;2023-06-14T06:39:17;19.30;96.70
4985;DHT22;2509;49.902;8.600;2023-06-14T06:42:20;19.50;96.50
4985;DHT22;2509;49.902;8.600;2023-06-14T06:45:22;19.70;96.70
4985;DHT22;2509;49.902;8.600;2023-06-14T06:48:25;19.90;95.80
4985;DHT22;2509;49.902;8.600;2023-06-14T06:51:27;20.10;95.50
4985;DHT22;2509;49.902;8.600;2023-06-14T06:54:29;20.10;95.70
4985;DHT22;2509;49.902;8.600;2023-06-14T06:57:32;20.10;95.40
4985;DHT22;2509;49.902;8.600;2023-06-14T07:00:33;20.30;94.80
4985;DHT22;2509;49.902;8.600;2023-06-14T07:03:35;20.30;94.30
4985;DHT22;2509;49.902;8.600;2023-06-14T07:06:37;20.50;94.80
4985;DHT22;2509;49.902;8.600;2023-06-14T07:09:39;20.60;94.10
4985;DHT22;2509;49.902;8.600;2023-06-14T07:12:43;20.70;93.40
4985;DHT22;2509;49.902;8.600;2023-06-14T07:15:45;20.70;93.70
4985;DHT22;2509;49.902;8.600;2023-06-14T07:18:46;20.80;92.80
4985;DHT22;2509;49.902;8.600;2023-06-14T07:21:48;20.90;93.10
4985;DHT22;2509;49.902;8.600;2023-06-14T07:24:50;21.00;92.60
4985;DHT22;2509;49.902;8.600;2023-06-14T07:27:53;21.20;92.10
4985;DHT22;2509;49.902;8.600;2023-06-14T07:30:55;21.30;91.60
4985;DHT22;2509;49.902;8.600;2023-06-14T07:33:57;21.40;91.10
4985;DHT22;2509;49.902;8.600;2023-06-14T07:36:59;21.50;91.50
4985;DHT22;2509;49.902;8.600;2023-06-14T07:40:01;21.70;92.20
4985;DHT22;2509;49.902;8.600;2023-06-14T07:43:08;21.90;91.30
4985;DHT22;2509;49.902;8.600;2023-06-14T07:46:10;22.10;91.60
4985;DHT22;2509;49.902;8.600;2023-06-14T07:49:12;22.20;90.30
4985;DHT22;2509;49.902;8.600;2023-06-14T07:52:14;22.30;90.00
4985;DHT22;2509;49.902;8.600;2023-06-14T07:55:15;22.30;89.80
4985;DHT22;2509;49.902;8.600;2023-06-14T07:58:19;22.40;89.70
4985;DHT22;2509;49.902;8.600;2023-06-14T08:01:20;22.40;89.20
4985;DHT22;2509;49.902;8.600;2023-06-14T08:04:24;22.60;90.20
4985;DHT22;2509;49.902;8.600;2023-06-14T08:07:26;22.70;88.80
4985;DHT22;2509;49.902;8.600;2023-06-14T08:10:28;23.00;90.80
4985;DHT22;2509;49.902;8.600;2023-06-14T08:13:31;23.10;88.60
4985;DHT22;2509;49.902;8.600;2023-06-14T08:16:33;23.10;87.80
4985;DHT22;2509;49.902;8.600;2023-06-14T08:19:34;23.00;88.50
4985;DHT22;2509;49.902;8.600;2023-06-14T08:22:37;23.10;87.90
4985;DHT22;2509;49.902;8.600;2023-06-14T08:25:40;23.20;87.00
4985;DHT22;2509;49.902;8.600;2023-06-14T08:28:43;23.20;87.80
4985;DHT22;2509;49.902;8.600;2023-06-14T08:31:45;23.20;87.60
4985;DHT22;2509;49.902;8.600;2023-06-14T08:34:46;23.40;87.00
4985;DHT22;2509;49.902;8.600;2023-06-14T08:37:49;23.50;85.70
4985;DHT22;2509;49.902;8.600;2023-06-14T08:40:51;23.60;86.20
4985;DHT22;2509;49.902;8.600;2023-06-14T08:43:55;23.80;86.70
4985;DHT22;2509;49.902;8.600;2023-06-14T08:46:59;23.80;85.50
4985;DHT22;2509;49.902;8.600;2023-06-14T08:50:01;23.90;84.50
4985;DHT22;2509;49.902;8.600;2023-06-14T08:53:05;23.90;85.50
4985;DHT22;2509;49.902;8.600;2023-06-14T08:56:10;23.70;84.80
4985;DHT22;2509;49.902;8.600;2023-06-14T08:59:15;24.00;84.90
4985;DHT22;2509;49.902;8.600;2023-06-14T09:02:18;24.20;84.10
4985;DHT22;2509;49.902;8.600;2023-06-14T09:05:23;24.40;82.80
4985;DHT22;2509;49.902;8.600;2023-06-14T09:08:25;24.40;83.50
4985;DHT22;2509;49.902;8.600;2023-06-14T09:11:27;24.30;82.30
4985;DHT22;2509;49.902;8.600;2023-06-14T09:14:30;24.40;82.20
4985;DHT22;2509;49.902;8.600;2023-06-14T09:17:33;24.70;80.80
4985;DHT22;2509;49.902;8.600;2023-06-14T09:20:36;24.80;81.20
4985;DHT22;2509;49.902;8.600;2023-06-14T09:23:39;25.00;82.30
4985;DHT22;2509;49.902;8.600;2023-06-14T09:26:41;25.10;79.10
4985;DHT22;2509;49.902;8.600;2023-06-14T09:29:44;25.00;78.80
4985;DHT22;2509;49.902;8.600;2023-06-14T09:32:46;25.30;79.00
4985;DHT22;2509;49.902;8.600;2023-06-14T09:35:51;25.30;80.50
4985;DHT22;2509;49.902;8.600;2023-06-14T09:38:53;25.50;79.00
4985;DHT22;2509;49.902;8.600;2023-06-14T09:41:55;25.50;80.30
4985;DHT22;2509;49.902;8.600;2023-06-14T09:44:58;25.60;80.10
4985;DHT22;2509;49.902;8.600;2023-06-14T09:48:00;25.70;80.90
4985;DHT22;2509;49.902;8.600;2023-06-14T09:51:03;25.70;79.50
4985;DHT22;2509;49.902;8.600;2023-06-14T09:54:06;25.60;79.60
4985;DHT22;2509;49.902;8.600;2023-06-14T09:57:09;25.80;80.40
4985;DHT22;2509;49.902;8.600;2023-06-14T10:00:15;26.00;79.10
4985;DHT22;2509;49.902;8.600;2023-06-14T10:03:23;26.20;79.40
4985;DHT22;2509;49.902;8.600;2023-06-14T10:06:26;26.50;79.20
4985;DHT22;2509;49.902;8.600;2023-06-14T10:09:30;26.60;79.20
4985;DHT22;2509;49.902;8.600;2023-06-14T10:12:32;26.20;78.40
4985;DHT22;2509;49.902;8.600;2023-06-14T10:15:41;26.10;79.80
4985;DHT22;2509;49.902;8.600;2023-06-14T10:18:49;26.40;79.70
4985;DHT22;2509;49.902;8.600;2023-06-14T10:21:57;26.60;79.30
4985;DHT22;2509;49.902;8.600;2023-06-14T10:24:59;26.50;78.70
4985;DHT22;2509;49.902;8.600;2023-06-14T10:28:18;26.80;78.30
4985;DHT22;2509;49.902;8.600;2023-06-14T10:31:40;26.90;79.30
4985;DHT22;2509;49.902;8.600;2023-06-14T10:34:42;26.90;78.20
4985;DHT22;2509;49.902;8.600;2023-06-14T10:37:46;26.70;78.50
4985;DHT22;2509;49.902;8.600;2023-06-14T10:40:52;26.70;79.90
4985;DHT22;2509;49.902;8.600;2023-06-14T10:44:37;26.90;78.60
4985;DHT22;2509;49.902;8.600;2023-06-14T10:47:41;26.70;78.80
4985;DHT22;2509;49.902;8.600;2023-06-14T10:50:43;26.90;79.40
4985;DHT22;2509;49.902;8.600;2023-06-14T10:53:45;27.20;78.70
4985;DHT22;2509;49.902;8.600;2023-06-14T10:56:48;27.30;78.10
4985;DHT22;2509;49.902;8.600;2023-06-14T10:59:50;27.50;77.80
4985;DHT22;2509;49.902;8.600;2023-06-14T11:03:16;27.60;76.60
4985;DHT22;2509;49.902;8.600;2023-06-14T11:06:30;27.20;77.10
4985;DHT22;2509;49.902;8.600;2023-06-14T11:09:51;27.20;77.40
4985;DHT22;2509;49.902;8.600;2023-06-14T11:12:57;27.10;78.60
4985;DHT22;2509;49.902;8.600;2023-06-14T11:15:59;26.60;76.90
4985;DHT22;2509;49.902;8.600;2023-06-14T11:19:03;26.40;77.80
4985;DHT22;2509;49.902;8.600;2023-06-14T11:22:05;26.50;79.00
4985;DHT22;2509;49.902;8.600;2023-06-14T11:25:08;26.80;77.70
4985;DHT22;2509;49.902;8.600;2023-06-14T11:28:10;27.00;77.70
4985;DHT22;2509;49.902;8.600;2023-06-14T11:31:12;27.50;77.70
4985;DHT22;2509;49.902;8.600;2023-06-14T11:34:15;28.50;74.10
4985;DHT22;2509;49.902;8.600;2023-06-14T11:37:17;29.40;73.20
4985;DHT22;2509;49.902;8.600;2023-06-14T11:40:19;30.00;68.90
4985;DHT22;2509;49.902;8.600;2023-06-14T11:43:21;29.50;70.30
4985;DHT22;2509;49.902;8.600;2023-06-14T11:46:25;28.90;72.70
4985;DHT22;2509;49.902;8.600;2023-06-14T11:49:28;28.30;73.70
4985;DHT22;2509;49.902;8.600;2023-06-14T11:52:30;27.50;74.70
4985;DHT22;2509;49.902;8.600;2023-06-14T11:55:32;26.90;76.10
4985;DHT22;2509;49.902;8.600;2023-06-14T11:58:37;26.60;76.70
4985;DHT22;2509;49.902;8.600;2023-06-14T12:01:38;26.50;76.10
4985;DHT22;2509;49.902;8.600;2023-06-14T12:04:42;26.50;76.40
4985;DHT22;2509;49.902;8.600;2023-06-14T12:07:44;26.40;76.70
4985;DHT22;2509;49.902;8.600;2023-06-14T12:10:51;26.50;75.60
4985;DHT22;2509;49.902;8.600;2023-06-14T12:13:53;26.70;76.30
4985;DHT22;2509;49.902;8.600;2023-06-14T12:17:04;26.60;77.00
4985;DHT22;2509;49.902;8.600;2023-06-14T12:20:08;26.90;76.40
4985;DHT22;2509;49.902;8.600;2023-06-14T12:23:14;27.40;77.00
4985;DHT22;2509;49.902;8.600;2023-06-14T12:26:17;28.50;76.30
4985;DHT22;2509;49.902;8.600;2023-06-14T12:29:19;28.70;72.90
4985;DHT22;2509;49.902;8.600;2023-06-14T12:32:21;28.70;75.00
4985;DHT22;2509;49.902;8.600;2023-06-14T12:35:24;28.10;73.60
4985;DHT22;2509;49.902;8.600;2023-06-14T12:38:26;27.70;74.10
4985;DHT22;2509;49.902;8.600;2023-06-14T12:41:28;27.70;74.50
4985;DHT22;2509;49.902;8.600;2023-06-14T12:44:29;28.50;74.80
4985;DHT22;2509;49.902;8.600;2023-06-14T12:47:34;28.90;73.40
4985;DHT22;2509;49.902;8.600;2023-06-14T12:50:37;29.60;71.20
4985;DHT22;2509;49.902;8.600;2023-06-14T12:53:39;30.20;70.10
4985;DHT22;2509;49.902;8.600;2023-06-14T12:56:41;30.80;70.10
4985;DHT22;2509;49.902;8.600;2023-06-14T12:59:43;31.10;69.30
4985;DHT22;2509;49.902;8.600;2023-06-14T13:02:46;31.20;68.80
4985;DHT22;2509;49.902;8.600;2023-06-14T13:05:49;31.40;66.80
4985;DHT22;2509;49.902;8.600;2023-06-14T13:08:51;31.60;65.30
4985;DHT22;2509;49.902;8.600;2023-06-14T13:11:55;31.50;67.10
4985;DHT22;2509;49.902;8.600;2023-06-14T13:14:57;30.20;69.60
4985;DHT22;2509;49.902;8.600;2023-06-14T13:17:58;29.50;69.20
4985;DHT22;2509;49.902;8.600;2023-06-14T13:21:01;30.30;69.60
4985;DHT22;2509;49.902;8.600;2023-06-14T13:24:04;30.10;68.40
4985;DHT22;2509;49.902;8.600;2023-06-14T13:27:06;29.70;69.70
4985;DHT22;2509;49.902;8.600;2023-06-14T13:30:09;29.40;69.70
4985;DHT22;2509;49.902;8.600;2023-06-14T13:33:11;29.40;68.00
4985;DHT22;2509;49.902;8.600;2023-06-14T13:36:14;28.50;71.30
4985;DHT22;2509;49.902;8.600;2023-06-14T13:39:16;27.80;73.40
4985;DHT22;2509;49.902;8.600;2023-06-14T13:42:18;27.40;74.10
4985;DHT22;2509;49.902;8.600;2023-06-14T13:45:20;27.00;74.40
4985;DHT22;2509;49.902;8.600;2023-06-14T13:48:22;28.20;74.50
4985;DHT22;2509;49.902;8.600;2023-06-14T13:51:25;29.80;71.00
4985;DHT22;2509;49.902;8.600;2023-06-14T13:54:27;30.40;70.20
4985;DHT22;2509;49.902;8.600;2023-06-14T13:57:29;31.20;68.70
4985;DHT22;2509;49.902;8.600;2023-06-14T14:00:32;31.70;67.00
4985;DHT22;2509;49.902;8.600;2023-06-14T14:03:35;32.20;65.50
4985;DHT22;2509;49.902;8.600;2023-06-14T14:06:38;32.20;68.00
4985;DHT22;2509;49.902;8.600;2023-06-14T14:09:40;32.30;66.00
4985;DHT22;2509;49.902;8.600;2023-06-14T14:12:44;32.20;65.70
4985;DHT22;2509;49.902;8.600;2023-06-14T14:15:45;32.30;66.50
4985;DHT22;2509;49.902;8.600;2023-06-14T14:18:47;32.30;66.90
4985;DHT22;2509;49.902;8.600;2023-06-14T14:21:50;33.30;64.60
4985;DHT22;2509;49.902;8.600;2023-06-14T14:24:53;34.10;64.50
4985;DHT22;2509;49.902;8.600;2023-06-14T14:27:55;34.80;62.70
4985;DHT22;2509;49.902;8.600;2023-06-14T14:30:57;33.80;62.60
4985;DHT22;2509;49.902;8.600;2023-06-14T14:33:59;34.40;62.90
4985;DHT22;2509;49.902;8.600;2023-06-14T14:37:02;33.80;64.20
4985;DHT22;2509;49.902;8.600;2023-06-14T14:40:05;33.30;64.10
4985;DHT22;2509;49.902;8.600;2023-06-14T14:43:07;32.80;63.70
4985;DHT22;2509;49.902;8.600;2023-06-14T14:46:09;32.90;64.80
4985;DHT22;2509;49.902;8.600;2023-06-14T14:49:11;34.20;63.20
4985;DHT22;2509;49.902;8.600;2023-06-14T14:52:14;35.20;61.20
4985;DHT22;2509;49.902;8.600;2023-06-14T14:55:15;34.20;61.00
4985;DHT22;2509;49.902;8.600;2023-06-14T14:58:17;33.20;62.50
4985;DHT22;2509;49.902;8.600;2023-06-14T15:01:19;33.40;63.00
4985;DHT22;2509;49.902;8.600;2023-06-14T15:04:21;32.20;61.80
4985;DHT22;2509;49.902;8.600;2023-06-14T15:07:24;31.30;64.40
4985;DHT22;2509;49.902;8.600;2023-06-14T15:10:26;32.30;65.00
4985;DHT22;2509;49.902;8.600;2023-06-14T15:13:27;32.60;64.10
4985;DHT22;2509;49.902;8.600;2023-06-14T15:16:29;33.10;63.30
4985;DHT22;2509;49.902;8.600;2023-06-14T15:19:31;33.30;61.90
4985;DHT22;2509;49.902;8.600;2023-06-14T15:22:35;33.30;61.80
4985;DHT22;2509;49.902;8.600;2023-06-14T15:25:37;32.60;63.00
4985;DHT22;2509;49.902;8.600;2023-06-14T15:28:39;32.90;62.90
4985;DHT22;2509;49.902;8.600;2023-06-14T15:31:41;32.80;63.00
4985;DHT22;2509;49.902;8.600;2023-06-14T15:34:42;33.00;62.90
4985;DHT22;2509;49.902;8.600;2023-06-14T15:37:47;32.60;63.50
4985;DHT22;2509;49.902;8.600;2023-06-14T15:40:49;32.50;64.10
4985;DHT22;2509;49.902;8.600;2023-06-14T15:43:51;32.20;64.70
4985;DHT22;2509;49.902;8.600;2023-06-14T15:46:53;31.30;66.40
4985;DHT22;2509;49.902;8.600;2023-06-14T15:49:55;30.10;67.70
4985;DHT22;2509;49.902;8.600;2023-06-14T15:52:58;29.30;68.60
4985;DHT22;2509;49.902;8.600;2023-06-14T15:56:00;28.50;68.90
4985;DHT22;2509;49.902;8.600;2023-06-14T15:59:01;28.10;71.90
4985;DHT22;2509;49.902;8.600;2023-06-14T16:02:03;27.90;70.60
4985;DHT22;2509;49.902;8.600;2023-06-14T16:05:05;27.90;70.30
4985;DHT22;2509;49.902;8.600;2023-06-14T16:08:08;27.90;70.80
4985;DHT22;2509;49.902;8.600;2023-06-14T16:11:10;28.00;71.20
4985;DHT22;2509;49.902;8.600;2023-06-14T16:14:12;28.00;71.00
4985;DHT22;2509;49.902;8.600;2023-06-14T16:17:14;28.00;71.30
4985;DHT22;2509;49.902;8.600;2023-06-14T16:20:16;28.00;70.00
4985;DHT22;2509;49.902;8.600;2023-06-14T16:23:19;28.00;69.90
4985;DHT22;2509;49.902;8.600;2023-06-14T16:26:20;27.80;70.90
4985;DHT22;2509;49.902;8.600;2023-06-14T16:29:22;27.70;70.60
4985;DHT22;2509;49.902;8.600;2023-06-14T16:32:24;27.90;71.80
4985;DHT22;2509;49.902;8.600;2023-06-14T16:35:26;28.20;71.20
4985;DHT22;2509;49.902;8.600;2023-06-14T16:38:29;27.90;71.50
4985;DHT22;2509;49.902;8.600;2023-06-14T16:41:30;27.80;71.60
4985;DHT22;2509;49.902;8.600;2023-06-14T16:44:32;27.90;71.80
4985;DHT22;2509;49.902;8.600;2023-06-14T16:47:34;27.70;71.70
4985;DHT22;2509;49.902;8.600;2023-06-14T16:50:36;27.10;72.70
4985;DHT22;2509;49.902;8.600;2023-06-14T16:53:39;26.90;73.70
4985;DHT22;2509;49.902;8.600;2023-06-14T16:56:41;26.50;74.60
4985;DHT22;2509;49.902;8.600;2023-06-14T16:59:42;26.10;75.30
4985;DHT22;2509;49.902;8.600;2023-06-14T17:02:44;25.90;75.80
4985;DHT22;2509;49.902;8.600;2023-06-14T17:05:56;25.90;77.20
4985;DHT22;2509;49.902;8.600;2023-06-14T17:08:59;26.10;76.40
4985;DHT22;2509;49.902;8.600;2023-06-14T17:12:00;26.00;76.30
4985;DHT22;2509;49.902;8.600;2023-06-14T17:15:03;26.00;75.40
4985;DHT22;2509;49.902;8.600;2023-06-14T17:18:05;26.00;76.20
4985;DHT22;2509;49.902;8.600;2023-06-14T17:21:07;26.00;75.60
4985;DHT22;2509;49.902;8.600;2023-06-14T17:24:11;25.90;77.10
4985;DHT22;2509;49.902;8.600;2023-06-14T17:27:12;25.80;77.20
4985;DHT22;2509;49.902;8.600;2023-06-14T17:30:14;25.70;78.60
4985;DHT22;2509;49.902;8.600;2023-06-14T17:33:16;25.70;80.10
4985;DHT22;2509;49.902;8.600;2023-06-14T17:36:18;25.60;79.20
4985;DHT22;2509;49.902;8.600;2023-06-14T17:39:21;25.40;80.30
4985;DHT22;2509;49.902;8.600;2023-06-14T17:42:23;24.00;84.90
4985;DHT22;2509;49.902;8.600;2023-06-14T17:45:25;23.50;88.70
4985;DHT22;2509;49.902;8.600;2023-06-14T17:48:27;23.50;87.10
4985;DHT22;2509;49.902;8.600;2023-06-14T17:51:33;23.60;88.50
4985;DHT22;2509;49.902;8.600;2023-06-14T17:54:36;23.70;88.20
4985;DHT22;2509;49.902;8.600;2023-06-14T17:57:38;23.80;88.50
4985;DHT22;2509;49.902;8.600;2023-06-14T18:00:39;23.80;88.50
4985;DHT22;2509;49.902;8.600;2023-06-14T18:03:41;23.70;88.60
4985;DHT22;2509;49.902;8.600;2023-06-14T18:06:43;23.70;87.40
4985;DHT22;2509;49.902;8.600;2023-06-14T18:09:46;23.60;86.40
4985;DHT22;2509;49.902;8.600;2023-06-14T18:12:48;23.50;88.50
4985;DHT22;2509;49.902;8.600;2023-06-14T18:15:49;23.50;89.30
4985;DHT22;2509;49.902;8.600;2023-06-14T18:18:51;23.40;87.20
4985;DHT22;2509;49.902;8.600;2023-06-14T18:21:54;23.30;86.20
4985;DHT22;2509;49.902;8.600;2023-06-14T18:24:58;23.20;89.30
4985;DHT22;2509;49.902;8.600;2023-06-14T18:27:59;23.10;87.90
4985;DHT22;2509;49.902;8.600;2023-06-14T18:31:01;23.00;90.20
4985;DHT22;2509;49.902;8.600;2023-06-14T18:34:03;23.00;90.30
4985;DHT22;2509;49.902;8.600;2023-06-14T18:37:06;22.90;87.50
4985;DHT22;2509;49.902;8.600;2023-06-14T18:40:11;22.80;88.20
4985;DHT22;2509;49.902;8.600;2023-06-14T18:43:13;22.80;87.30
4985;DHT22;2509;49.902;8.600;2023-06-14T18:46:15;22.70;88.60
4985;DHT22;2509;49.902;8.600;2023-06-14T18:49:16;22.70;89.00
4985;DHT22;2509;49.902;8.600;2023-06-14T18:52:18;22.70;88.10
4985;DHT22;2509;49.902;8.600;2023-06-14T18:55:21;22.70;90.40
4985;DHT22;2509;49.902;8.600;2023-06-14T18:58:23;22.60;90.40
4985;DHT22;2509;49.902;8.600;2023-06-14T19:01:25;22.60;87.90
4985;DHT22;2509;49.902;8.600;2023-06-14T19:04:27;22.50;88.20
4985;DHT22;2509;49.902;8.600;2023-06-14T19:07:29;22.40;88.70
4985;DHT22;2509;49.902;8.600;2023-06-14T19:10:32;22.40;89.40
4985;DHT22;2509;49.902;8.600;2023-06-14T19:13:34;22.40;90.90
4985;DHT22;2509;49.902;8.600;2023-06-14T19:16:35;22.30;88.80
4985;DHT22;2509;49.902;8.600;2023-06-14T19:19:40;22.20;91.10
4985;DHT22;2509;49.902;8.600;2023-06-14T19:22:41;22.10;89.10
4985;DHT22;2509;49.902;8.600;2023-06-14T19:25:44;22.00;89.70
4985;DHT22;2509;49.902;8.600;2023-06-14T19:28:46;21.90;89.10
4985;DHT22;2509;49.902;8.600;2023-06-14T19:31:48;21.90;90.20
4985;DHT22;2509;49.902;8.600;2023-06-14T19:34:50;21.80;89.30
4985;DHT22;2509;49.902;8.600;2023-06-14T19:37:51;21.80;89.10
4985;DHT22;2509;49.902;8.600;2023-06-14T19:40:54;21.70;88.90
4985;DHT22;2509;49.902;8.600;2023-06-14T19:43:56;21.80;90.80
4985;DHT22;2509;49.902;8.600;2023-06-14T19:46:58;21.70;88.70
4985;DHT22;2509;49.902;8.600;2023-06-14T19:50:00;21.70;89.10
4985;DHT22;2509;49.902;8.600;2023-06-14T19:53:01;21.60;89.80
4985;DHT22;2509;49.902;8.600;2023-06-14T19:56:05;21.60;89.00